MSC Shanghai — A8HO3 — position and weather

sailwx.info

Track history (hours):
 
Tides and Currents Weather Stations Pressure Air Temp Water Temp Dewpoint Dewpoint Depression Visibility Wind Speed Wind Dir Waves Ship Positions

MSC Shanghai

Last reported at 2018-Jul-17 20:44 UTC. Time now 2018-Jul-18 02:44 UTC.
Position N 39°42' W 027°00'.

Length 274.7 m; beam 40 m; draft 14.5 m.

Type: Ship (hazmat cat A). MMSI: 636091328.

Date/timePositionNaut miles runAvg speedWind from/ knotsBaromVisibWave heightAir tempDewpointWater temp
2018-Jul-17 20:44N 39°42' W 027°00'1413.9
2018-Jul-17 19:45N 39°43' W 027°18'2113.7
2018-Jul-17 18:15N 39°45' W 027°45'413.5
2018-Jul-17 17:57N 39°45' W 027°50'716.7
2018-Jul-17 17:31N 39°46' W 027°59'1121.2
2018-Jul-17 17:00N 39°47' W 028°13'917.0
2018-Jul-17 16:30N 39°48' W 028°24'613.0
2018-Jul-17 16:01N 39°48' W 028°33'713.1
2018-Jul-17 15:30N 39°48' W 028°41'713.2
2018-Jul-17 15:00N 39°49' W 028°50'612.9
2018-Jul-17 14:31N 39°49' W 028°58'612.4
2018-Jul-17 14:00N 39°49' W 029°06'612.4
2018-Jul-17 13:30N 39°50' W 029°14'3 4.7
2018-Jul-17 12:55N 39°50' W 029°18'1 1.2
2018-Jul-17 12:25N 39°50' W 029°18'1 1.2
2018-Jul-17 11:58N 39°51' W 029°18'0 1.0
2018-Jul-17 11:28N 39°51' W 029°19'0 0.9
2018-Jul-17 10:58N 39°51' W 029°19'1 3.0
2018-Jul-17 10:30N 39°52' W 029°21'611.4
2018-Jul-17 10:00N 39°52' W 029°28'815.7
2018-Jul-17 09:30N 39°53' W 029°39'3214.0
2018-Jul-17 07:15N 39°56' W 030°20'3413.0
2018-Jul-17 04:38N 39°59' W 031°04'312.9
2018-Jul-17 04:24N 39°59' W 031°08'513.3
2018-Jul-17 04:00N 39°60' W 031°15'713.1
2018-Jul-17 03:30N 39°60' W 031°23'612.8
2018-Jul-17 03:00N 39°59' W 031°32'612.9
2018-Jul-17 02:30N 39°59' W 031°40'713.0
2018-Jul-17 02:00N 39°58' W 031°48'713.2
2018-Jul-17 01:30N 39°58' W 031°57'  
Track history (hours):
 
Tides and Currents Weather Stations Pressure Air Temp Water Temp Dewpoint Dewpoint Depression Visibility Wind Speed Wind Dir Waves Ship Positions

MSC Shanghai

Last reported at 2018-Jul-17 20:44 UTC. Time now 2018-Jul-18 02:44 UTC.
Position N 39°42' W 027°00'.

Length 274.7 m; beam 40 m; draft 14.5 m.

Type: Ship (hazmat cat A). MMSI: 636091328.

Date/timePositionNaut miles runAvg speedWind from/ knotsBaromVisibWave heightAir tempDewpointWater temp
2018-Jul-17 20:44N 39°42' W 027°00'1413.9
2018-Jul-17 19:45N 39°43' W 027°18'2113.7
2018-Jul-17 18:15N 39°45' W 027°45'413.5
2018-Jul-17 17:57N 39°45' W 027°50'716.7
2018-Jul-17 17:31N 39°46' W 027°59'1121.2
2018-Jul-17 17:00N 39°47' W 028°13'917.0
2018-Jul-17 16:30N 39°48' W 028°24'613.0
2018-Jul-17 16:01N 39°48' W 028°33'713.1
2018-Jul-17 15:30N 39°48' W 028°41'713.2
2018-Jul-17 15:00N 39°49' W 028°50'612.9
2018-Jul-17 14:31N 39°49' W 028°58'612.4
2018-Jul-17 14:00N 39°49' W 029°06'612.4
2018-Jul-17 13:30N 39°50' W 029°14'3 4.7
2018-Jul-17 12:55N 39°50' W 029°18'1 1.2
2018-Jul-17 12:25N 39°50' W 029°18'1 1.2
2018-Jul-17 11:58N 39°51' W 029°18'0 1.0
2018-Jul-17 11:28N 39°51' W 029°19'0 0.9
2018-Jul-17 10:58N 39°51' W 029°19'1 3.0
2018-Jul-17 10:30N 39°52' W 029°21'611.4
2018-Jul-17 10:00N 39°52' W 029°28'815.7
2018-Jul-17 09:30N 39°53' W 029°39'3214.0
2018-Jul-17 07:15N 39°56' W 030°20'3413.0
2018-Jul-17 04:38N 39°59' W 031°04'312.9
2018-Jul-17 04:24N 39°59' W 031°08'513.3
2018-Jul-17 04:00N 39°60' W 031°15'713.1
2018-Jul-17 03:30N 39°60' W 031°23'612.8
2018-Jul-17 03:00N 39°59' W 031°32'612.9
2018-Jul-17 02:30N 39°59' W 031°40'713.0
2018-Jul-17 02:00N 39°58' W 031°48'713.2
2018-Jul-17 01:30N 39°58' W 031°57'  

Dump ship's entire track history